createdAt,value
2022-11-28T00:00:56.265Z,100919.66
2022-11-28T00:03:27.989Z,100924.63
2022-11-28T00:05:59.485Z,100934.00
2022-11-28T00:08:30.781Z,100939.19
2022-11-28T00:11:06.357Z,100936.28
2022-11-28T00:13:38.336Z,100932.31
2022-11-28T00:16:11.615Z,100861.22
2022-11-28T00:18:42.945Z,100954.16
2022-11-28T00:21:16.708Z,100935.66
2022-11-28T00:23:49.492Z,100876.41
2022-11-28T00:26:35.603Z,100943.75
2022-11-28T00:29:08.637Z,100958.91
2022-11-28T00:31:44.120Z,100964.75
2022-11-28T00:34:17.185Z,100940.84
2022-11-28T00:36:49.341Z,100968.69
2022-11-28T00:39:20.833Z,100977.22
2022-11-28T00:41:52.198Z,100975.13
2022-11-28T00:44:23.871Z,100953.72
2022-11-28T00:46:55.291Z,100983.88
2022-11-28T00:49:26.909Z,100987.84
2022-11-28T00:51:58.395Z,100968.28
2022-11-28T00:54:29.698Z,100937.94
2022-11-28T00:57:00.991Z,100935.03
2022-11-28T00:59:32.285Z,100991.38
2022-11-28T01:02:03.951Z,100999.06
2022-11-28T01:04:35.397Z,100938.56
2022-11-28T01:07:06.738Z,101013.81
2022-11-28T01:09:38.177Z,101011.91
2022-11-28T01:12:09.594Z,101017.75
2022-11-28T01:14:41.263Z,100963.72
2022-11-28T01:17:13.216Z,101012.34
2022-11-28T01:19:45.174Z,101028.56
2022-11-28T01:22:16.497Z,101023.16
2022-11-28T01:24:47.937Z,101028.13
2022-11-28T01:27:19.310Z,101021.50
2022-11-28T01:29:50.635Z,101032.09
2022-11-28T01:32:21.959Z,101031.88
2022-11-28T01:34:53.372Z,101037.28
2022-11-28T01:37:24.708Z,101027.50
2022-11-28T01:39:56.036Z,101041.84
2022-11-28T01:42:27.649Z,101039.75
2022-11-28T01:45:09.929Z,101041.44
2022-11-28T01:47:40.812Z,101035.66
2022-11-28T01:50:13.466Z,101039.38
2022-11-28T01:52:48.380Z,100990.28
2022-11-28T01:55:23.577Z,101046.19
2022-11-28T01:57:57.133Z,101019.38
2022-11-28T02:00:28.494Z,101030.81
2022-11-28T02:03:32.009Z,101024.78
2022-11-28T02:06:04.089Z,101029.53
2022-11-28T02:08:37.183Z,101030.16
2022-11-28T02:11:17.322Z,101031.41
2022-11-28T02:14:13.306Z,101025.56
2022-11-28T02:17:16.542Z,101021.00
2022-11-28T02:20:04.384Z,101026.38
2022-11-28T02:22:41.406Z,101017.63
2022-11-28T02:25:32.731Z,101022.84
2022-11-28T02:28:31.622Z,101019.31
2022-11-28T02:31:24.305Z,101027.22
2022-11-28T02:34:12.047Z,100925.38
2022-11-28T02:37:13.539Z,101007.25
2022-11-28T02:39:58.135Z,101015.91
2022-11-28T02:43:07.483Z,101006.19
2022-11-28T02:46:06.334Z,101011.72
2022-11-28T02:48:46.502Z,100940.25
2022-11-28T02:51:39.148Z,101001.31
2022-11-28T02:54:13.951Z,101009.81
2022-11-28T02:56:54.341Z,100998.19
2022-11-28T02:59:40.504Z,101004.38
2022-11-28T03:02:34.126Z,101011.06
2022-11-28T03:06:07.224Z,101005.88
2022-11-28T03:08:40.817Z,100996.56
2022-11-28T03:12:04.997Z,100991.50
2022-11-28T03:14:47.656Z,100999.56
2022-11-28T03:17:37.127Z,100989.97
2022-11-28T03:20:24.959Z,100987.84
2022-11-28T03:23:26.770Z,100994.97
2022-11-28T03:26:14.950Z,100990.94
2022-11-28T03:29:19.748Z,100986.16
2022-11-28T03:32:06.026Z,100895.81
2022-11-28T03:34:41.733Z,100988.13
2022-11-28T03:37:26.135Z,100870.19
2022-11-28T03:40:02.290Z,100941.97
2022-11-28T03:42:39.444Z,100945.22
2022-11-28T03:45:27.007Z,100938.00
2022-11-28T03:48:15.859Z,100797.06
2022-11-28T03:50:58.318Z,100870.22
2022-11-28T03:53:37.950Z,100862.09
2022-11-28T03:56:27.622Z,100928.25
2022-11-28T03:59:17.389Z,100916.06
2022-11-28T04:02:09.762Z,100928.47
2022-11-28T04:04:55.262Z,100929.34
2022-11-28T04:07:43.759Z,100917.59
2022-11-28T04:10:30.097Z,100920.94
2022-11-28T04:13:16.063Z,100918.84
2022-11-28T04:16:07.415Z,100905.13
2022-11-28T04:19:02.376Z,100886.44
2022-11-28T04:21:42.533Z,100892.34
2022-11-28T04:24:48.671Z,100830.28
2022-11-28T04:27:29.643Z,100883.34
2022-11-28T04:30:05.151Z,100729.91
2022-11-28T04:32:41.166Z,100868.31
2022-11-28T04:35:18.782Z,100784.13
2022-11-28T04:37:51.465Z,100857.88
2022-11-28T04:40:25.574Z,100849.34
2022-11-28T04:43:12.791Z,100860.34
2022-11-28T04:45:53.244Z,100847.00
2022-11-28T04:48:26.768Z,100850.31
2022-11-28T04:51:17.825Z,100831.41
2022-11-28T04:54:04.238Z,100841.72
2022-11-28T04:56:54.727Z,100821.16
2022-11-28T04:59:29.225Z,100831.88
2022-11-28T05:02:05.319Z,100814.88
2022-11-28T05:04:40.475Z,100811.09
2022-11-28T05:07:12.853Z,100827.66
2022-11-28T05:09:44.285Z,100812.31
2022-11-28T05:12:16.205Z,100818.47
2022-11-28T05:14:47.822Z,100802.88
2022-11-28T05:17:19.265Z,100800.09
2022-11-28T05:19:51.279Z,100778.09
2022-11-28T05:22:22.768Z,100786.28
2022-11-28T05:24:54.413Z,100783.38
2022-11-28T05:27:25.687Z,100784.44
2022-11-28T05:29:57.099Z,100784.56
2022-11-28T05:32:30.963Z,100781.38
2022-11-28T05:35:02.409Z,100780.97
2022-11-28T05:37:33.994Z,100760.03
2022-11-28T05:40:05.779Z,100777.78
2022-11-28T05:42:38.669Z,100704.47
2022-11-28T05:45:10.939Z,100766.00
2022-11-28T05:47:41.582Z,100765.16
2022-11-28T05:50:13.063Z,100753.59
2022-11-28T05:52:44.390Z,100763.91
2022-11-28T05:55:15.690Z,100760.94
2022-11-28T05:57:47.428Z,100742.22
2022-11-28T06:00:19.033Z,100742.09
2022-11-28T06:02:50.299Z,100736.69
2022-11-28T06:05:41.756Z,100740.84
2022-11-28T06:08:16.505Z,100734.13
2022-11-28T06:10:47.894Z,100733.06
2022-11-28T06:13:19.251Z,100726.22
2022-11-28T06:15:50.554Z,100732.38
2022-11-28T06:18:21.780Z,100726.31
2022-11-28T06:20:52.923Z,100719.88
2022-11-28T06:23:24.255Z,100705.72
2022-11-28T06:25:55.543Z,100715.16
2022-11-28T06:28:27.209Z,100719.53
2022-11-28T06:30:58.609Z,100703.84
2022-11-28T06:33:30.377Z,100691.81
2022-11-28T06:36:06.840Z,100699.63
2022-11-28T06:38:38.856Z,100627.69
2022-11-28T06:41:16.392Z,100689.47
2022-11-28T06:43:48.168Z,100676.28
2022-11-28T06:46:24.416Z,100691.50
2022-11-28T06:48:55.781Z,100655.00
2022-11-28T06:51:27.207Z,100684.31
2022-11-28T06:53:58.923Z,100690.34
2022-11-28T06:56:30.209Z,100685.72
2022-11-28T06:59:02.757Z,100672.38
2022-11-28T07:01:35.670Z,100680.78
2022-11-28T07:04:07.469Z,100674.88
2022-11-28T07:06:38.791Z,100664.00
2022-11-28T07:09:10.218Z,100666.06
2022-11-28T07:11:44.115Z,100588.25
2022-11-28T07:14:15.638Z,100644.69
2022-11-28T07:16:46.875Z,100645.22
2022-11-28T07:19:24.141Z,100643.72
2022-11-28T07:21:55.511Z,100618.00
2022-11-28T07:24:26.902Z,100637.94
2022-11-28T07:26:58.411Z,100639.56
2022-11-28T07:29:37.403Z,100622.00
2022-11-28T07:32:09.947Z,100513.00
2022-11-28T07:34:44.625Z,100641.22
2022-11-28T07:37:19.109Z,100638.75
2022-11-28T07:39:50.633Z,100641.53
2022-11-28T07:42:21.892Z,100642.75
2022-11-28T07:45:08.437Z,100638.47
2022-11-28T07:47:40.164Z,100632.53
2022-11-28T07:50:12.148Z,100623.34
2022-11-28T07:52:43.966Z,100618.28
2022-11-28T07:55:15.262Z,100619.19
2022-11-28T07:57:46.947Z,100616.97
2022-11-28T08:00:19.230Z,100628.06
2022-11-28T08:02:50.716Z,100629.22
2022-11-28T08:05:22.537Z,100616.81
2022-11-28T08:07:53.874Z,100610.19
2022-11-28T08:10:25.329Z,100621.25
2022-11-28T08:12:57.460Z,100621.59
2022-11-28T08:15:32.560Z,100619.69
2022-11-28T08:18:03.928Z,100619.19
2022-11-28T08:20:35.973Z,100618.72
2022-11-28T08:23:07.335Z,100610.47
2022-11-28T08:25:38.646Z,100626.31
2022-11-28T08:28:09.966Z,100627.56
2022-11-28T08:30:41.328Z,100608.69
2022-11-28T08:33:13.244Z,100622.22
2022-11-28T08:35:44.623Z,100605.72
2022-11-28T08:38:15.925Z,100618.31
2022-11-28T08:40:47.308Z,100618.63
2022-11-28T08:43:18.637Z,100627.13
2022-11-28T08:45:53.513Z,100611.06
2022-11-28T08:48:24.869Z,100612.94
2022-11-28T08:50:56.275Z,100623.19
2022-11-28T08:53:28.020Z,100621.88
2022-11-28T08:56:00.148Z,100621.38
2022-11-28T08:58:31.716Z,100614.53
2022-11-28T09:01:03.544Z,100611.91
2022-11-28T09:03:34.920Z,100598.69
2022-11-28T09:06:06.290Z,100610.00
2022-11-28T09:08:37.651Z,100610.72
2022-11-28T09:11:11.451Z,100612.72
2022-11-28T09:13:43.843Z,100619.06
2022-11-28T09:16:16.380Z,100625.31
2022-11-28T09:18:47.867Z,100625.59
2022-11-28T09:21:19.453Z,100648.50
2022-11-28T09:23:51.017Z,100653.94
2022-11-28T09:26:25.939Z,100635.69
2022-11-28T09:28:57.834Z,100664.31
2022-11-28T09:31:29.470Z,100656.66
2022-11-28T09:34:00.795Z,100658.34
2022-11-28T09:36:34.084Z,100637.69
2022-11-28T09:39:05.658Z,100654.75
2022-11-28T09:41:53.036Z,100662.59
2022-11-28T09:44:33.047Z,100666.50
2022-11-28T09:47:09.010Z,100603.19
2022-11-28T09:49:59.651Z,100650.97
2022-11-28T09:53:11.959Z,100670.56
2022-11-28T09:55:51.833Z,100671.03
2022-11-28T09:58:41.922Z,100665.13
2022-11-28T10:01:13.585Z,100668.75
2022-11-28T10:03:57.167Z,100666.22
2022-11-28T10:07:04.510Z,100666.94
2022-11-28T10:10:10.482Z,100682.59
2022-11-28T10:12:41.791Z,100694.50
2022-11-28T10:15:32.002Z,100686.81
2022-11-28T10:18:18.119Z,100691.00
2022-11-28T10:20:54.642Z,100696.41
2022-11-28T10:23:36.124Z,100698.84
2022-11-28T10:26:25.240Z,100638.09
2022-11-28T10:28:59.819Z,100724.59
2022-11-28T10:31:47.730Z,100704.53
2022-11-28T10:34:28.571Z,100728.50
2022-11-28T10:37:24.006Z,100723.28
2022-11-28T10:39:57.148Z,100720.56
2022-11-28T10:42:51.961Z,100723.00
2022-11-28T10:45:54.447Z,100716.41
2022-11-28T10:48:44.492Z,100721.69
2022-11-28T10:51:19.297Z,100728.34
2022-11-28T10:54:05.223Z,100731.53
2022-11-28T10:56:59.801Z,100643.81
2022-11-28T10:59:55.417Z,100655.25
2022-11-28T11:02:59.897Z,100729.81
2022-11-28T11:05:37.462Z,100662.69
2022-11-28T11:08:21.243Z,100745.88
2022-11-28T11:11:36.037Z,100753.16
2022-11-28T11:14:10.781Z,100753.91
2022-11-28T11:17:02.154Z,100686.13
2022-11-28T11:19:36.715Z,100730.00
2022-11-28T11:22:13.668Z,100762.94
2022-11-28T11:24:45.015Z,100764.84
2022-11-28T11:27:25.516Z,100775.31
2022-11-28T11:29:57.039Z,100775.31
2022-11-28T11:32:32.072Z,100699.03
2022-11-28T11:35:03.953Z,100710.25
2022-11-28T11:37:40.892Z,100704.44
2022-11-28T11:40:32.904Z,100798.84
2022-11-28T11:43:04.273Z,100801.13
2022-11-28T11:45:37.404Z,100816.34
2022-11-28T11:48:14.245Z,100805.97
2022-11-28T11:50:56.715Z,100796.00
2022-11-28T11:53:27.995Z,100815.56
2022-11-28T11:56:03.463Z,100818.88
2022-11-28T11:58:53.985Z,100818.63
2022-11-28T12:01:26.032Z,100832.63
2022-11-28T12:04:30.653Z,100729.31
2022-11-28T12:07:06.470Z,100796.63
2022-11-28T12:09:46.377Z,100758.97
2022-11-28T12:12:30.748Z,100845.56
2022-11-28T12:15:02.519Z,100845.41
2022-11-28T12:18:09.960Z,100846.66
2022-11-28T12:21:30.236Z,100845.41
2022-11-28T12:24:28.015Z,100848.13
2022-11-28T12:27:23.742Z,100768.16
2022-11-28T12:30:13.791Z,100852.91
2022-11-28T12:33:03.499Z,100853.25
2022-11-28T12:35:46.494Z,100860.81
2022-11-28T12:38:39.308Z,100847.91
2022-11-28T12:41:32.193Z,100857.91
2022-11-28T12:44:34.955Z,100849.19
2022-11-28T12:47:19.382Z,100852.41
2022-11-28T12:49:58.847Z,100837.28
2022-11-28T12:53:03.988Z,100874.47
2022-11-28T12:56:04.509Z,100868.75
2022-11-28T12:58:56.512Z,100896.50
2022-11-28T13:01:45.977Z,100895.41
2022-11-28T13:04:46.726Z,100900.94
2022-11-28T13:07:41.240Z,100905.25
2022-11-28T13:10:21.247Z,100906.28
2022-11-28T13:13:16.245Z,100920.78
2022-11-28T13:15:58.792Z,100905.66
2022-11-28T13:18:36.943Z,100915.03
2022-11-28T13:21:32.434Z,100906.59
2022-11-28T13:24:19.099Z,100886.03
2022-11-28T13:27:00.482Z,100914.41
2022-11-28T13:29:50.062Z,100889.91
2022-11-28T13:33:09.252Z,100915.19
2022-11-28T13:35:44.665Z,100768.84
2022-11-28T13:39:11.656Z,100878.44
2022-11-28T13:42:16.265Z,100914.28
2022-11-28T13:44:49.395Z,100920.78
2022-11-28T13:47:29.181Z,100910.97
2022-11-28T13:50:25.041Z,100904.78
2022-11-28T13:53:22.048Z,100912.03
2022-11-28T13:56:09.193Z,100911.06
2022-11-28T13:58:50.916Z,100910.38
2022-11-28T14:01:31.201Z,100904.94
2022-11-28T14:04:02.848Z,100907.88
2022-11-28T14:07:04.300Z,100887.69
2022-11-28T14:09:52.285Z,100905.72
2022-11-28T14:12:30.105Z,100826.00
2022-11-28T14:15:10.916Z,100897.72
2022-11-28T14:17:56.304Z,100854.00
2022-11-28T14:20:39.865Z,100825.78
2022-11-28T14:23:49.822Z,100907.84
2022-11-28T14:26:37.991Z,100897.09
2022-11-28T14:29:29.629Z,100814.22
2022-11-28T14:34:55.303Z,100893.97
2022-11-28T14:37:30.935Z,100926.19
2022-11-28T14:40:03.019Z,100905.69
2022-11-28T14:46:15.280Z,100927.44
2022-11-28T14:49:11.763Z,100931.22
2022-11-28T14:52:09.940Z,100933.69
2022-11-28T14:54:45.854Z,100844.47
2022-11-28T14:57:26.052Z,100894.25
2022-11-28T15:00:01.291Z,100842.84
2022-11-28T15:03:00.544Z,100930.84
2022-11-28T15:05:49.363Z,100928.78
2022-11-28T15:08:31.994Z,100948.34
2022-11-28T15:11:39.875Z,100941.72
2022-11-28T15:14:24.641Z,100933.75
2022-11-28T15:17:04.317Z,100849.44
2022-11-28T15:19:40.943Z,100866.81
2022-11-28T15:22:35.431Z,100938.34
2022-11-28T15:25:19.405Z,100928.34
2022-11-28T15:27:51.404Z,100927.09
2022-11-28T15:30:28.251Z,100835.38
2022-11-28T15:33:02.458Z,100859.06
2022-11-28T15:35:34.789Z,100909.34
2022-11-28T15:38:06.706Z,100943.84
2022-11-28T15:40:39.353Z,100860.56
2022-11-28T15:43:16.494Z,100938.25
2022-11-28T15:46:00.138Z,100908.19
2022-11-28T15:48:52.902Z,100935.00
2022-11-28T15:51:37.351Z,100843.03
2022-11-28T15:54:33.409Z,100923.81
2022-11-28T15:57:05.653Z,100927.31
2022-11-28T15:59:38.185Z,100912.56
2022-11-28T16:02:29.792Z,100920.69
2022-11-28T16:05:12.926Z,100923.69
2022-11-28T16:07:46.257Z,100913.00
2022-11-28T16:10:24.172Z,100922.38
2022-11-28T16:13:04.405Z,100778.75
2022-11-28T16:15:36.077Z,100922.38
2022-11-28T16:18:08.673Z,100922.78
2022-11-28T16:20:40.772Z,100902.88
2022-11-28T16:23:12.912Z,100926.19
2022-11-28T16:25:44.888Z,100921.78
2022-11-28T16:28:42.399Z,100914.13
2022-11-28T16:31:15.657Z,100913.06
2022-11-28T16:33:47.779Z,100913.25
2022-11-28T16:36:41.986Z,100913.25
2022-11-28T16:39:13.498Z,100918.03
2022-11-28T16:42:07.502Z,100833.56
2022-11-28T16:44:38.981Z,100923.69
2022-11-28T16:47:28.969Z,100870.56
2022-11-28T16:50:26.224Z,100913.34
2022-11-28T16:53:01.845Z,100932.00
2022-11-28T16:55:36.354Z,100920.34
2022-11-28T16:58:18.548Z,100921.19
2022-11-28T17:01:03.559Z,100914.19
2022-11-28T17:03:50.695Z,100844.75
2022-11-28T17:06:38.854Z,100845.38
2022-11-28T17:09:13.657Z,100833.94
2022-11-28T17:11:59.804Z,100846.00
2022-11-28T17:14:31.141Z,100894.38
2022-11-28T17:17:02.687Z,100902.88
2022-11-28T17:19:34.109Z,100905.34
2022-11-28T17:22:05.724Z,100889.16
2022-11-28T17:24:38.070Z,100892.06
2022-11-28T17:27:10.477Z,100888.28
2022-11-28T17:29:41.677Z,100887.78
2022-11-28T17:32:15.038Z,100809.41
2022-11-28T17:34:49.048Z,100880.59
2022-11-28T17:37:20.347Z,100872.50
2022-11-28T17:40:09.532Z,100844.91
2022-11-28T17:42:41.153Z,100870.03
2022-11-28T17:45:17.502Z,100860.47
2022-11-28T17:47:48.870Z,100850.66
2022-11-28T17:50:20.436Z,100854.00
2022-11-28T17:52:51.805Z,100835.78
2022-11-28T17:55:23.239Z,100844.06
2022-11-28T17:57:55.881Z,100855.47
2022-11-28T18:00:28.603Z,100863.41
2022-11-28T18:03:00.332Z,100862.97
2022-11-28T18:05:31.834Z,100860.06
2022-11-28T18:08:03.177Z,100857.19
2022-11-28T18:10:35.804Z,100871.28
2022-11-28T18:13:07.772Z,100878.38
2022-11-28T18:15:41.147Z,100786.41
2022-11-28T18:18:13.289Z,100811.09
2022-11-28T18:20:45.039Z,100858.91
2022-11-28T18:23:16.809Z,100875.69
2022-11-28T18:25:48.216Z,100849.31
2022-11-28T18:28:19.739Z,100865.09
2022-11-28T18:30:52.040Z,100847.66
2022-11-28T18:33:23.430Z,100858.22
2022-11-28T18:35:55.092Z,100859.88
2022-11-28T18:38:27.148Z,100859.44
2022-11-28T18:40:58.727Z,100837.47
2022-11-28T18:43:30.179Z,100837.69
2022-11-28T18:46:09.010Z,100849.28
2022-11-28T18:48:42.775Z,100785.34
2022-11-28T18:51:19.731Z,100818.59
2022-11-28T18:53:53.075Z,100851.16
2022-11-28T18:56:25.896Z,100857.22
2022-11-28T18:58:59.535Z,100699.44
2022-11-28T19:01:37.073Z,100791.16
2022-11-28T19:04:14.773Z,100867.22
2022-11-28T19:06:47.439Z,100842.44
2022-11-28T19:09:20.594Z,100776.88
2022-11-28T19:11:52.152Z,100842.69
2022-11-28T19:14:24.965Z,100837.69
2022-11-28T19:16:58.279Z,100844.31
2022-11-28T19:19:30.209Z,100821.91
2022-11-28T19:22:01.855Z,100830.19
2022-11-28T19:24:33.244Z,100836.03
2022-11-28T19:27:07.320Z,100780.34
2022-11-28T19:29:41.393Z,100821.91
2022-11-28T19:32:14.082Z,100761.50
2022-11-28T19:34:46.290Z,100830.84
2022-11-28T19:37:18.775Z,100835.19
2022-11-28T19:39:50.026Z,100824.00
2022-11-28T19:42:21.594Z,100832.28
2022-11-28T19:44:53.061Z,100819.81
2022-11-28T19:47:24.825Z,100817.72
2022-11-28T19:49:56.343Z,100812.81
2022-11-28T19:52:28.232Z,100817.53
2022-11-28T19:54:59.627Z,100807.34
2022-11-28T19:57:31.986Z,100816.06
2022-11-28T20:00:04.365Z,100805.28
2022-11-28T20:02:44.849Z,100781.81
2022-11-28T20:05:16.225Z,100807.44
2022-11-28T20:07:48.603Z,100814.41
2022-11-28T20:10:20.129Z,100750.31
2022-11-28T20:12:51.561Z,100718.94
2022-11-28T20:15:23.977Z,100800.28
2022-11-28T20:17:56.588Z,100790.75
2022-11-28T20:20:27.917Z,100787.41
2022-11-28T20:23:00.606Z,100774.34
2022-11-28T20:25:33.299Z,100800.28
2022-11-28T20:28:05.173Z,100800.28
2022-11-28T20:30:38.471Z,100802.81
2022-11-28T20:33:09.877Z,100777.50
2022-11-28T20:35:41.246Z,100798.50
2022-11-28T20:38:12.449Z,100777.06
2022-11-28T20:40:43.666Z,100803.84
2022-11-28T20:43:15.016Z,100793.28
2022-11-28T20:45:46.378Z,100800.94
2022-11-28T20:48:17.705Z,100788.28
2022-11-28T20:50:48.982Z,100795.97
2022-11-28T20:53:26.429Z,100789.72
2022-11-28T20:56:08.756Z,100721.88
2022-11-28T20:58:40.193Z,100754.28
2022-11-28T21:01:17.036Z,100655.91
2022-11-28T21:03:49.899Z,100798.25
2022-11-28T21:06:20.739Z,100810.34
2022-11-28T21:08:52.715Z,100820.72
2022-11-28T21:11:55.026Z,100827.78
2022-11-28T21:14:17.079Z,100816.75
2022-11-28T21:16:49.706Z,100829.00
2022-11-28T21:19:21.398Z,100832.56
2022-11-28T21:21:52.717Z,100827.19
2022-11-28T21:24:24.360Z,100824.44
2022-11-28T21:26:56.117Z,100831.53
2022-11-28T21:29:27.425Z,100827.78
2022-11-28T21:31:58.820Z,100827.78
2022-11-28T21:34:30.265Z,100832.34
2022-11-28T21:37:01.963Z,100841.09
2022-11-28T21:39:33.465Z,100842.72
2022-11-28T21:42:04.988Z,100842.72
2022-11-28T21:44:36.389Z,100813.66
2022-11-28T21:47:09.695Z,100836.94
2022-11-28T21:49:42.412Z,100814.09
2022-11-28T21:52:14.956Z,100829.28
2022-11-28T21:54:46.222Z,100832.38
2022-11-28T21:57:17.667Z,100829.88
2022-11-28T21:59:48.998Z,100838.56
2022-11-28T22:02:22.146Z,100824.06
2022-11-28T22:04:56.380Z,100843.16
2022-11-28T22:07:27.704Z,100836.09
2022-11-28T22:10:01.076Z,100844.84
2022-11-28T22:12:32.404Z,100826.56
2022-11-28T22:15:03.627Z,100850.66
2022-11-28T22:17:36.416Z,100759.91
2022-11-28T22:20:09.505Z,100764.25
2022-11-28T22:22:41.182Z,100846.50
2022-11-28T22:25:12.529Z,100848.97
2022-11-28T22:27:43.877Z,100852.09
2022-11-28T22:30:15.664Z,100854.84
2022-11-28T22:32:47.366Z,100852.53
2022-11-28T22:35:18.722Z,100870.19
2022-11-28T22:37:50.092Z,100869.16
2022-11-28T22:40:22.342Z,100847.34
2022-11-28T22:42:57.919Z,100863.53
2022-11-28T22:45:29.662Z,100865.00
2022-11-28T22:48:01.669Z,100866.22
2022-11-28T22:50:36.028Z,100868.09
2022-11-28T22:53:11.245Z,100865.19
2022-11-28T22:55:42.568Z,100871.66
2022-11-28T22:58:13.894Z,100883.09
2022-11-28T23:00:45.178Z,100883.94
2022-11-28T23:03:17.131Z,100876.22
2022-11-28T23:05:49.415Z,100874.38
2022-11-28T23:08:22.416Z,100881.41
2022-11-28T23:10:53.811Z,100895.13
2022-11-28T23:13:25.502Z,100902.63
2022-11-28T23:15:57.007Z,100894.69
2022-11-28T23:18:28.511Z,100891.38
2022-11-28T23:20:59.932Z,100913.81
2022-11-28T23:23:37.570Z,100846.91
2022-11-28T23:26:12.435Z,100921.72
2022-11-28T23:28:44.298Z,100871.03
2022-11-28T23:31:18.156Z,100846.28
2022-11-28T23:33:50.606Z,100931.28
2022-11-28T23:36:26.770Z,100947.50
2022-11-28T23:39:00.884Z,100932.13
2022-11-28T23:41:32.913Z,100958.72
2022-11-28T23:44:04.692Z,100967.03
2022-11-28T23:46:36.111Z,100957.03
2022-11-28T23:49:08.413Z,100957.00
2022-11-28T23:51:41.972Z,100959.28
2022-11-28T23:54:14.611Z,100972.81
2022-11-28T23:56:45.961Z,100976.94
2022-11-28T23:59:17.302Z,100985.69
